createdAt,value
2019-06-07T00:03:57.491Z,10.90
2019-06-07T00:06:51.525Z,10.80
2019-06-07T00:09:36.255Z,10.80
2019-06-07T00:12:21.479Z,10.90
2019-06-07T00:15:10.545Z,10.70
2019-06-07T00:17:52.380Z,10.70
2019-06-07T00:20:36.953Z,10.70
2019-06-07T00:23:23.078Z,10.60
2019-06-07T00:26:08.435Z,10.60
2019-06-07T00:29:02.398Z,10.50
2019-06-07T00:31:46.755Z,10.40
2019-06-07T00:34:31.455Z,10.20
2019-06-07T00:37:16.400Z,10.20
2019-06-07T00:40:13.980Z,10.10
2019-06-07T00:42:57.116Z,10.10
2019-06-07T00:45:42.051Z,10.10
2019-06-07T00:48:32.381Z,10.10
2019-06-07T00:51:14.133Z,10.20
2019-06-07T00:54:09.383Z,10.10
2019-06-07T00:57:03.171Z,10.20
2019-06-07T00:59:48.380Z,10.30
2019-06-07T01:02:42.214Z,10.30
2019-06-07T01:05:36.335Z,10.40
2019-06-07T01:08:22.728Z,10.30
2019-06-07T01:11:08.279Z,10.30
2019-06-07T01:13:53.210Z,10.10
2019-06-07T01:16:56.683Z,10.10
2019-06-07T01:19:32.558Z,10.10
2019-06-07T01:22:18.424Z,10.20
2019-06-07T01:25:13.519Z,10.40
2019-06-07T01:28:07.748Z,10.30
2019-06-07T01:31:02.841Z,10.30
2019-06-07T01:33:51.178Z,10.30
2019-06-07T01:36:34.688Z,10.30
2019-06-07T01:39:21.107Z,10.30
2019-06-07T01:42:06.612Z,10.30
2019-06-07T01:45:00.331Z,10.30
2019-06-07T01:47:45.204Z,10.30
2019-06-07T01:50:39.479Z,10.30
2019-06-07T01:53:33.124Z,10.20
2019-06-07T01:56:18.917Z,10.10
2019-06-07T01:59:04.195Z,10.00
2019-06-07T02:01:49.002Z,10.10
2019-06-07T02:04:33.712Z,10.20
2019-06-07T02:07:06.771Z,10.20
2019-06-07T02:09:59.099Z,10.20
2019-06-07T02:13:02.183Z,10.30
2019-06-07T02:15:46.884Z,10.50
2019-06-07T02:18:34.674Z,10.50
2019-06-07T02:21:23.096Z,10.60
2019-06-07T02:24:17.451Z,10.60
2019-06-07T02:27:02.081Z,10.70
2019-06-07T02:29:47.167Z,10.70
2019-06-07T02:32:34.686Z,10.70
2019-06-07T02:35:18.224Z,10.70
2019-06-07T02:38:03.367Z,10.70
2019-06-07T02:40:48.445Z,10.80
2019-06-07T02:43:42.251Z,10.80
2019-06-07T02:46:38.150Z,10.90
2019-06-07T02:49:13.340Z,11.00
2019-06-07T02:51:58.268Z,11.10
2019-06-07T02:54:43.057Z,11.20
2019-06-07T02:57:29.502Z,11.20
2019-06-07T03:03:19.273Z,11.20
2019-06-07T03:06:04.376Z,11.10
2019-06-07T03:08:58.423Z,11.10
2019-06-07T03:11:43.035Z,11.10
2019-06-07T03:14:28.671Z,11.10
2019-06-07T03:17:40.611Z,11.10
2019-06-07T03:21:05.499Z,11.00
2019-06-07T03:23:48.096Z,10.90
2019-06-07T03:29:40.996Z,10.90
2019-06-07T03:35:18.490Z,11.00
2019-06-07T03:38:34.852Z,11.10
2019-06-07T03:41:19.528Z,11.10
2019-06-07T03:44:04.802Z,11.00
2019-06-07T03:46:59.130Z,11.00
2019-06-07T03:49:52.938Z,11.00
2019-06-07T03:52:47.131Z,10.90
2019-06-07T03:55:41.607Z,11.00
2019-06-07T03:58:46.264Z,11.10
2019-06-07T04:01:21.735Z,11.00
2019-06-07T04:04:07.015Z,11.10
2019-06-07T04:06:51.903Z,11.10
2019-06-07T04:09:41.886Z,11.10
2019-06-07T04:12:23.258Z,11.00
2019-06-07T04:15:08.147Z,11.00
2019-06-07T04:18:01.827Z,11.00
2019-06-07T04:20:41.453Z,11.00
2019-06-07T04:23:29.927Z,11.10
2019-06-07T04:26:25.695Z,11.10
2019-06-07T04:29:33.133Z,11.30
2019-06-07T04:31:57.326Z,11.20
2019-06-07T04:34:43.238Z,11.30
2019-06-07T04:37:41.018Z,11.30
2019-06-07T04:43:38.712Z,11.50
2019-06-07T04:46:33.920Z,11.60
2019-06-07T04:49:54.047Z,11.70
2019-06-07T04:52:48.793Z,12.00
2019-06-07T04:55:36.617Z,12.20
2019-06-07T04:58:21.555Z,12.30
2019-06-07T05:01:25.004Z,12.50
2019-06-07T05:03:53.207Z,12.70
2019-06-07T05:06:39.736Z,12.80
2019-06-07T05:09:24.988Z,13.00
2019-06-07T05:12:07.503Z,13.10
2019-06-07T05:15:15.047Z,13.30
2019-06-07T05:18:00.399Z,13.30
2019-06-07T05:20:46.150Z,13.50
2019-06-07T05:24:06.623Z,13.60
2019-06-07T05:26:39.223Z,13.80
2019-06-07T05:29:23.784Z,13.90
2019-06-07T05:32:08.239Z,13.90
2019-06-07T05:34:52.718Z,14.10
2019-06-07T05:37:46.695Z,14.20
2019-06-07T05:40:43.949Z,14.40
2019-06-07T05:43:39.296Z,14.50
2019-06-07T05:46:33.918Z,14.50
2019-06-07T05:49:27.350Z,14.70
2019-06-07T05:52:12.687Z,14.80
2019-06-07T05:54:55.210Z,14.90
2019-06-07T05:58:02.994Z,15.10
2019-06-07T06:01:41.068Z,15.20
2019-06-07T06:03:52.859Z,15.20
2019-06-07T06:06:47.570Z,15.20
2019-06-07T06:09:34.779Z,15.20
2019-06-07T06:12:33.854Z,15.30
2019-06-07T06:15:06.130Z,15.40
2019-06-07T06:18:00.583Z,15.40
2019-06-07T06:21:16.025Z,15.50
2019-06-07T06:23:42.816Z,15.70
2019-06-07T06:26:40.754Z,15.70
2019-06-07T06:29:23.180Z,15.70
2019-06-07T06:32:41.266Z,15.80
2019-06-07T06:35:03.024Z,16.00
2019-06-07T06:37:52.921Z,16.10
2019-06-07T06:40:35.258Z,16.20
2019-06-07T06:43:20.007Z,16.30
2019-06-07T06:46:04.912Z,16.40
2019-06-07T06:48:54.737Z,16.50
2019-06-07T06:51:39.136Z,16.50
2019-06-07T06:54:40.767Z,16.60
2019-06-07T06:57:28.631Z,16.70
2019-06-07T07:00:42.775Z,16.80
2019-06-07T07:03:47.477Z,16.90
2019-06-07T07:05:55.394Z,17.00
2019-06-07T07:08:40.914Z,17.10
2019-06-07T07:11:25.804Z,17.20
2019-06-07T07:14:20.706Z,17.30
2019-06-07T07:17:05.805Z,17.30
2019-06-07T07:19:59.772Z,17.40
2019-06-07T07:22:48.562Z,17.40
2019-06-07T07:25:33.227Z,17.50
2019-06-07T07:28:18.172Z,17.50
2019-06-07T07:31:03.647Z,17.50
2019-06-07T07:36:47.520Z,17.60
2019-06-07T07:39:31.008Z,17.90
2019-06-07T07:42:24.868Z,18.00
2019-06-07T07:45:09.665Z,18.00
2019-06-07T07:48:10.558Z,17.90
2019-06-07T07:50:41.251Z,17.80
2019-06-07T07:53:48.318Z,17.90
2019-06-07T07:56:22.000Z,18.00
2019-06-07T07:59:15.930Z,18.20
2019-06-07T08:02:09.766Z,18.40
2019-06-07T08:07:53.962Z,18.40
2019-06-07T08:10:37.085Z,18.60
2019-06-07T08:13:31.495Z,18.80
2019-06-07T08:16:25.107Z,19.00
2019-06-07T08:19:10.234Z,19.10
2019-06-07T08:22:04.056Z,19.20
2019-06-07T08:24:50.507Z,19.20
2019-06-07T08:27:35.563Z,19.20
2019-06-07T08:33:26.834Z,19.40
2019-06-07T08:36:40.424Z,19.50
2019-06-07T08:39:20.373Z,19.70
2019-06-07T08:42:21.074Z,19.80
2019-06-07T08:45:05.314Z,19.90
2019-06-07T08:47:51.661Z,20.00
2019-06-07T08:50:44.252Z,20.10
2019-06-07T08:53:38.334Z,20.20
2019-06-07T08:56:32.519Z,20.40
2019-06-07T08:59:26.712Z,20.50
2019-06-07T09:02:23.616Z,20.50
2019-06-07T09:05:16.395Z,20.60
2019-06-07T09:08:23.472Z,20.70
2019-06-07T09:10:58.934Z,20.70
2019-06-07T09:13:43.306Z,20.80
2019-06-07T09:16:28.628Z,20.90
2019-06-07T09:19:22.710Z,21.00
2019-06-07T09:22:16.935Z,21.10
2019-06-07T09:25:20.609Z,21.20
2019-06-07T09:28:14.567Z,21.30
2019-06-07T09:30:52.466Z,21.40
2019-06-07T09:33:38.015Z,21.30
2019-06-07T09:36:32.287Z,21.40
2019-06-07T09:39:25.556Z,21.60
2019-06-07T09:42:12.572Z,21.80
2019-06-07T09:44:57.000Z,22.00
2019-06-07T09:47:43.236Z,22.10
2019-06-07T09:50:28.395Z,22.20
2019-06-07T09:53:23.451Z,22.40
2019-06-07T09:56:11.711Z,22.60
2019-06-07T09:58:55.062Z,22.70
2019-06-07T10:01:40.259Z,22.90
2019-06-07T10:04:34.254Z,23.10
2019-06-07T10:07:32.002Z,23.30
2019-06-07T10:13:19.986Z,23.80
2019-06-07T10:16:14.107Z,24.00
2019-06-07T10:19:09.921Z,24.10
2019-06-07T10:22:05.481Z,24.30
2019-06-07T10:24:59.702Z,24.40
2019-06-07T10:27:54.147Z,24.60
2019-06-07T10:30:47.543Z,24.80
2019-06-07T10:33:32.108Z,25.00
2019-06-07T10:36:16.641Z,25.20
2019-06-07T10:39:02.810Z,25.20
2019-06-07T10:41:58.231Z,25.30
2019-06-07T10:44:52.719Z,25.50
2019-06-07T10:47:46.442Z,25.70
2019-06-07T10:50:40.515Z,25.90
2019-06-07T10:53:25.423Z,26.00
2019-06-07T10:56:19.610Z,26.10
2019-06-07T10:59:13.790Z,26.20
2019-06-07T11:02:07.987Z,26.40
2019-06-07T11:05:01.881Z,26.50
2019-06-07T11:07:47.243Z,26.70
2019-06-07T11:10:40.641Z,26.90
2019-06-07T11:13:25.102Z,27.10
2019-06-07T11:16:11.086Z,27.40
2019-06-07T11:18:55.672Z,27.50
2019-06-07T11:21:49.651Z,27.70
2019-06-07T11:24:43.544Z,27.90
2019-06-07T11:27:29.128Z,27.90
2019-06-07T11:30:14.570Z,28.10
2019-06-07T11:33:01.235Z,28.20
2019-06-07T11:35:46.055Z,28.40
2019-06-07T11:38:40.967Z,28.50
2019-06-07T11:41:34.719Z,28.60
2019-06-07T11:44:19.517Z,28.80
2019-06-07T11:47:04.319Z,29.00
2019-06-07T11:49:49.247Z,29.00
2019-06-07T11:52:46.272Z,29.20
2019-06-07T11:55:39.295Z,29.40
2019-06-07T11:58:33.766Z,29.50
2019-06-07T12:01:27.401Z,29.70
2019-06-07T12:04:13.942Z,29.90
2019-06-07T12:07:10.310Z,29.90
2019-06-07T12:09:56.652Z,29.90
2019-06-07T12:12:50.159Z,30.00
2019-06-07T12:15:34.927Z,30.30
2019-06-07T12:18:19.991Z,30.30
2019-06-07T12:21:13.823Z,30.50
2019-06-07T12:23:58.602Z,30.60
2019-06-07T12:26:43.550Z,30.50
2019-06-07T12:29:38.014Z,30.60
2019-06-07T12:32:32.318Z,30.60
2019-06-07T12:35:25.910Z,30.70
2019-06-07T12:38:12.325Z,31.00
2019-06-07T12:41:06.651Z,31.20
2019-06-07T12:44:01.095Z,31.30
2019-06-07T12:46:54.999Z,31.40
2019-06-07T12:49:49.217Z,31.50
2019-06-07T12:52:43.049Z,31.60
2019-06-07T12:55:27.955Z,31.50
2019-06-07T12:58:13.825Z,31.50
2019-06-07T13:00:59.944Z,31.60
2019-06-07T13:03:44.655Z,31.80
2019-06-07T13:06:29.451Z,32.00
2019-06-07T13:09:24.412Z,32.00
2019-06-07T13:12:09.001Z,32.00
2019-06-07T13:14:53.534Z,32.00
2019-06-07T13:17:38.298Z,32.00
2019-06-07T13:20:24.713Z,32.10
2019-06-07T13:23:10.142Z,32.40
2019-06-07T13:25:54.614Z,32.50
2019-06-07T13:28:39.986Z,32.70
2019-06-07T13:31:34.149Z,32.90
2019-06-07T13:34:28.154Z,33.00
2019-06-07T13:37:23.361Z,32.90
2019-06-07T13:40:08.373Z,32.80
2019-06-07T13:42:53.274Z,32.80
2019-06-07T13:45:38.278Z,32.80
2019-06-07T13:48:23.355Z,32.90
2019-06-07T13:51:18.998Z,33.00
2019-06-07T13:54:13.098Z,33.30
2019-06-07T13:57:07.305Z,33.20
2019-06-07T14:00:09.997Z,33.30
2019-06-07T14:02:57.141Z,33.50
2019-06-07T14:05:51.057Z,33.80
2019-06-07T14:08:35.995Z,33.90
2019-06-07T14:11:21.434Z,34.10
2019-06-07T14:14:06.775Z,34.10
2019-06-07T14:16:52.220Z,34.00
2019-06-07T14:19:46.423Z,34.00
2019-06-07T14:22:40.337Z,33.90
2019-06-07T14:25:25.174Z,34.10
2019-06-07T14:28:12.027Z,34.30
2019-06-07T14:31:05.747Z,34.50
2019-06-07T14:33:50.739Z,34.80
2019-06-07T14:36:35.843Z,35.10
2019-06-07T14:39:31.375Z,35.10
2019-06-07T14:42:16.939Z,34.90
2019-06-07T14:45:05.907Z,34.80
2019-06-07T14:47:48.504Z,34.40
2019-06-07T14:50:34.497Z,34.70
2019-06-07T14:53:28.720Z,35.00
2019-06-07T14:56:13.498Z,35.00
2019-06-07T14:58:58.106Z,34.90
2019-06-07T15:01:51.808Z,34.80
2019-06-07T15:04:39.134Z,35.00
2019-06-07T15:07:51.836Z,35.10
2019-06-07T15:10:44.214Z,35.40
2019-06-07T15:13:29.472Z,35.50
2019-06-07T15:16:14.675Z,35.30
2019-06-07T15:19:08.223Z,35.00
2019-06-07T15:21:53.467Z,34.70
2019-06-07T15:24:47.716Z,34.60
2019-06-07T15:27:41.230Z,34.90
2019-06-07T15:30:27.340Z,34.70
2019-06-07T15:33:12.503Z,34.10
2019-06-07T15:35:57.654Z,33.90
2019-06-07T15:38:51.509Z,34.00
2019-06-07T15:41:37.518Z,33.90
2019-06-07T15:44:22.763Z,33.60
2019-06-07T15:47:07.506Z,33.60
2019-06-07T15:49:52.751Z,33.70
2019-06-07T15:52:46.211Z,33.80
2019-06-07T15:55:45.463Z,33.70
2019-06-07T15:58:37.172Z,33.60
2019-06-07T16:01:22.343Z,33.00
2019-06-07T16:04:07.330Z,32.70
2019-06-07T16:06:52.740Z,32.60
2019-06-07T16:09:46.958Z,32.80
2019-06-07T16:12:42.112Z,33.00
2019-06-07T16:15:26.789Z,33.00
2019-06-07T16:18:11.510Z,33.00
2019-06-07T16:20:56.512Z,32.90
2019-06-07T16:23:42.148Z,32.40
2019-06-07T16:26:36.040Z,32.10
2019-06-07T16:29:30.086Z,32.30
2019-06-07T16:32:15.023Z,32.00
2019-06-07T16:35:09.233Z,31.60
2019-06-07T16:37:53.775Z,31.40
2019-06-07T16:40:38.795Z,31.00
2019-06-07T16:43:24.324Z,30.70
2019-06-07T16:46:17.952Z,30.50
2019-06-07T16:49:02.981Z,30.20
2019-06-07T16:51:57.211Z,30.10
2019-06-07T16:54:51.436Z,29.60
2019-06-07T16:57:45.271Z,29.10
2019-06-07T17:00:30.215Z,28.60
2019-06-07T17:03:24.407Z,28.00
2019-06-07T17:06:18.468Z,27.40
2019-06-07T17:09:12.770Z,26.80
2019-06-07T17:12:07.003Z,26.10
2019-06-07T17:15:00.807Z,25.60
2019-06-07T17:17:47.061Z,25.30
2019-06-07T17:20:32.287Z,25.10
2019-06-07T17:23:26.024Z,25.00
2019-06-07T17:26:10.815Z,24.90
2019-06-07T17:28:55.918Z,24.70
2019-06-07T17:31:50.356Z,24.40
2019-06-07T17:34:44.322Z,23.60
2019-06-07T17:37:38.183Z,22.80
2019-06-07T17:40:23.257Z,22.40
2019-06-07T17:43:17.102Z,22.20
2019-06-07T17:46:03.436Z,22.00
2019-06-07T17:48:49.730Z,21.70
2019-06-07T17:51:34.838Z,21.30
2019-06-07T17:54:29.106Z,20.80
2019-06-07T17:57:23.499Z,20.40
2019-06-07T18:00:33.474Z,20.10
2019-06-07T18:03:13.050Z,19.90
2019-06-07T18:06:07.546Z,19.70
2019-06-07T18:09:01.467Z,19.50
2019-06-07T18:11:57.372Z,19.40
2019-06-07T18:14:52.063Z,19.20
2019-06-07T18:17:37.203Z,19.20
2019-06-07T18:20:21.721Z,19.20
2019-06-07T18:23:06.981Z,19.20
2019-06-07T18:25:52.645Z,19.20
2019-06-07T18:28:37.755Z,19.10
2019-06-07T18:31:22.763Z,19.00
2019-06-07T18:34:08.006Z,18.80
2019-06-07T18:37:02.152Z,18.70
2019-06-07T18:39:56.010Z,18.60
2019-06-07T18:42:40.908Z,18.50
2019-06-07T18:45:25.746Z,18.50
2019-06-07T18:48:10.522Z,18.30
2019-06-07T18:50:55.281Z,18.30
2019-06-07T18:53:40.792Z,18.30
2019-06-07T18:56:34.767Z,18.30
2019-06-07T18:59:28.159Z,18.20
2019-06-07T19:02:13.139Z,18.10
2019-06-07T19:04:58.410Z,18.10
2019-06-07T19:07:52.540Z,18.20
2019-06-07T19:10:46.627Z,18.10
2019-06-07T19:13:40.508Z,18.10
2019-06-07T19:16:25.112Z,18.20
2019-06-07T19:19:10.143Z,18.10
2019-06-07T19:21:54.509Z,18.10
2019-06-07T19:24:40.158Z,18.00
2019-06-07T19:27:33.843Z,18.00
2019-06-07T19:30:18.316Z,18.10
2019-06-07T19:33:03.618Z,18.00
2019-06-07T19:35:57.702Z,17.90
2019-06-07T19:38:42.776Z,17.90
2019-06-07T19:41:37.047Z,17.80
2019-06-07T19:44:30.614Z,18.00
2019-06-07T19:47:15.691Z,17.90
2019-06-07T19:50:10.090Z,17.80
2019-06-07T19:53:04.120Z,17.90
2019-06-07T19:55:59.158Z,17.90
2019-06-07T19:58:44.664Z,17.90
2019-06-07T20:01:38.702Z,17.90
2019-06-07T20:04:33.458Z,18.00
2019-06-07T20:07:18.541Z,18.00
2019-06-07T20:10:04.742Z,18.10
2019-06-07T20:12:50.095Z,18.10
2019-06-07T20:15:35.283Z,18.10
2019-06-07T20:18:29.468Z,18.20
2019-06-07T20:21:23.338Z,18.20
2019-06-07T20:24:25.991Z,18.10
2019-06-07T20:26:56.074Z,17.90
2019-06-07T20:29:40.918Z,18.10
2019-06-07T20:32:25.670Z,18.20
2019-06-07T20:35:10.197Z,17.90
2019-06-07T20:37:55.043Z,18.00
2019-06-07T20:40:40.079Z,17.80
2019-06-07T20:43:25.316Z,17.70
2019-06-07T20:46:19.282Z,17.60
2019-06-07T20:49:04.923Z,17.60
2019-06-07T20:52:00.513Z,17.60
2019-06-07T20:54:45.119Z,17.50
2019-06-07T20:57:38.939Z,17.50
2019-06-07T21:00:33.584Z,17.70
2019-06-07T21:03:18.554Z,17.70
2019-06-07T21:06:03.481Z,17.60
2019-06-07T21:08:48.060Z,17.60
2019-06-07T21:11:32.832Z,17.50
2019-06-07T21:14:17.559Z,17.50
2019-06-07T21:17:11.237Z,17.60
2019-06-07T21:20:06.028Z,17.80
2019-06-07T21:22:51.382Z,17.60
2019-06-07T21:25:36.147Z,17.40
2019-06-07T21:28:22.170Z,17.20
2019-06-07T21:31:08.205Z,17.20
2019-06-07T21:34:03.314Z,17.10
2019-06-07T21:36:58.006Z,17.00
2019-06-07T21:39:52.099Z,17.00
2019-06-07T21:42:45.925Z,17.00
2019-06-07T21:45:30.608Z,17.20
2019-06-07T21:48:15.863Z,17.10
2019-06-07T21:51:10.483Z,16.90
2019-06-07T21:53:55.602Z,16.90
2019-06-07T21:56:50.290Z,16.80
2019-06-07T21:59:35.283Z,17.00
2019-06-07T22:02:29.565Z,17.00
2019-06-07T22:05:23.646Z,16.90
2019-06-07T22:08:17.594Z,17.10
2019-06-07T22:11:12.333Z,16.80
2019-06-07T22:13:57.416Z,16.80
2019-06-07T22:16:42.242Z,16.90
2019-06-07T22:19:27.591Z,16.90
2019-06-07T22:22:12.943Z,17.00
2019-06-07T22:25:06.930Z,17.00
2019-06-07T22:28:00.626Z,17.00
2019-06-07T22:30:45.960Z,16.80
2019-06-07T22:33:39.860Z,16.60
2019-06-07T22:36:34.198Z,16.50
2019-06-07T22:39:28.090Z,16.40
2019-06-07T22:42:13.488Z,16.40
2019-06-07T22:44:58.304Z,16.20
2019-06-07T22:47:43.210Z,16.00
2019-06-07T22:50:27.859Z,16.20
2019-06-07T22:53:13.508Z,16.50
2019-06-07T22:56:03.884Z,16.50
2019-06-07T22:59:06.152Z,16.50
2019-06-07T23:01:59.616Z,16.60
2019-06-07T23:04:45.252Z,16.50
2019-06-07T23:07:30.115Z,16.10
2019-06-07T23:10:15.406Z,16.20
2019-06-07T23:13:00.663Z,16.30
2019-06-07T23:15:45.341Z,16.10
2019-06-07T23:18:30.432Z,15.90
2019-06-07T23:21:24.442Z,15.90
2019-06-07T23:24:25.095Z,16.00
2019-06-07T23:27:21.777Z,16.10
2019-06-07T23:30:08.712Z,16.10
2019-06-07T23:33:02.206Z,16.00
2019-06-07T23:35:47.559Z,16.00
2019-06-07T23:38:41.695Z,16.00
2019-06-07T23:41:35.786Z,16.10
2019-06-07T23:44:29.523Z,16.20
2019-06-07T23:47:16.985Z,16.20
2019-06-07T23:50:00.597Z,16.00
2019-06-07T23:52:45.083Z,16.10
2019-06-07T23:55:30.251Z,16.00
2019-06-07T23:58:15.990Z,16.00
